sensor_id;sensor_type;location;lat;lon;timestamp;pressure;altitude;pressure_sealevel;temperature;humidity
73910;BME280;62245;48.070;7.874;2024-02-26T00:01:41;97138.56;;;9.60;61.96
73910;BME280;62245;48.070;7.874;2024-02-26T00:04:06;97135.63;;;9.61;62.16
73910;BME280;62245;48.070;7.874;2024-02-26T00:06:31;97143.63;;;9.61;62.34
73910;BME280;62245;48.070;7.874;2024-02-26T00:08:57;97137.25;;;9.62;63.89
73910;BME280;62245;48.070;7.874;2024-02-26T00:11:23;97139.53;;;9.54;65.13
73910;BME280;62245;48.070;7.874;2024-02-26T00:13:48;97155.13;;;9.45;66.31
73910;BME280;62245;48.070;7.874;2024-02-26T00:16:13;97161.50;;;9.44;67.35
73910;BME280;62245;48.070;7.874;2024-02-26T00:18:39;97155.13;;;9.45;67.77
73910;BME280;62245;48.070;7.874;2024-02-26T00:21:04;97163.75;;;9.30;70.06
73910;BME280;62245;48.070;7.874;2024-02-26T00:23:30;97143.50;;;9.29;70.58
73910;BME280;62245;48.070;7.874;2024-02-26T00:25:55;97148.09;;;9.34;70.69
73910;BME280;62245;48.070;7.874;2024-02-26T00:28:21;97135.75;;;9.28;71.82
73910;BME280;62245;48.070;7.874;2024-02-26T00:30:46;97143.81;;;9.33;73.77
73910;BME280;62245;48.070;7.874;2024-02-26T00:33:13;97124.56;;;9.26;74.30
73910;BME280;62245;48.070;7.874;2024-02-26T00:35:39;97124.44;;;9.16;74.12
73910;BME280;62245;48.070;7.874;2024-02-26T00:38:04;97125.88;;;9.23;74.90
73910;BME280;62245;48.070;7.874;2024-02-26T00:40:29;97118.69;;;9.24;76.50
73910;BME280;62245;48.070;7.874;2024-02-26T00:42:55;97122.41;;;9.23;76.63
73910;BME280;62245;48.070;7.874;2024-02-26T00:45:20;97116.53;;;9.21;76.84
73910;BME280;62245;48.070;7.874;2024-02-26T00:47:45;97122.59;;;9.16;76.88
73910;BME280;62245;48.070;7.874;2024-02-26T00:50:12;97119.56;;;9.07;76.34
73910;BME280;62245;48.070;7.874;2024-02-26T00:52:43;97125.22;;;8.94;76.89
73910;BME280;62245;48.070;7.874;2024-02-26T00:55:09;97127.41;;;8.97;77.31
73910;BME280;62245;48.070;7.874;2024-02-26T00:57:34;97127.16;;;8.99;76.86
73910;BME280;62245;48.070;7.874;2024-02-26T00:59:59;97128.25;;;8.81;77.76
73910;BME280;62245;48.070;7.874;2024-02-26T04:00:52;97151.53;;;8.57;86.28
73910;BME280;62245;48.070;7.874;2024-02-26T04:03:17;97146.84;;;8.48;86.71
73910;BME280;62245;48.070;7.874;2024-02-26T04:05:42;97152.56;;;8.56;87.07
73910;BME280;62245;48.070;7.874;2024-02-26T04:08:07;97146.53;;;8.61;87.50
73910;BME280;62245;48.070;7.874;2024-02-26T04:10:33;97144.13;;;8.59;87.74
73910;BME280;62245;48.070;7.874;2024-02-26T04:13:01;97139.13;;;8.63;87.89
73910;BME280;62245;48.070;7.874;2024-02-26T04:15:26;97153.78;;;8.65;88.48
73910;BME280;62245;48.070;7.874;2024-02-26T04:17:51;97146.78;;;8.59;89.32
73910;BME280;62245;48.070;7.874;2024-02-26T04:20:17;97143.41;;;8.64;89.40
73910;BME280;62245;48.070;7.874;2024-02-26T04:22:42;97148.72;;;8.64;89.59
73910;BME280;62245;48.070;7.874;2024-02-26T04:25:08;97146.88;;;8.64;90.61
73910;BME280;62245;48.070;7.874;2024-02-26T04:27:33;97148.47;;;8.65;90.33
73910;BME280;62245;48.070;7.874;2024-02-26T04:29:59;97144.94;;;8.60;90.89
73910;BME280;62245;48.070;7.874;2024-02-26T04:32:24;97143.13;;;8.65;90.42
73910;BME280;62245;48.070;7.874;2024-02-26T04:34:49;97147.66;;;8.65;90.47
73910;BME280;62245;48.070;7.874;2024-02-26T04:37:15;97156.94;;;8.62;90.07
73910;BME280;62245;48.070;7.874;2024-02-26T04:39:40;97146.53;;;8.61;90.25
73910;BME280;62245;48.070;7.874;2024-02-26T04:42:05;97149.25;;;8.66;90.61
73910;BME280;62245;48.070;7.874;2024-02-26T04:44:31;97152.72;;;8.66;90.43
73910;BME280;62245;48.070;7.874;2024-02-26T04:46:56;97145.25;;;8.63;90.89
73910;BME280;62245;48.070;7.874;2024-02-26T04:49:21;97143.72;;;8.67;90.56
73910;BME280;62245;48.070;7.874;2024-02-26T04:51:47;97143.13;;;8.65;91.15
73910;BME280;62245;48.070;7.874;2024-02-26T04:54:13;97149.25;;;8.66;90.54
73910;BME280;62245;48.070;7.874;2024-02-26T04:56:38;97150.41;;;8.70;91.06
73910;BME280;62245;48.070;7.874;2024-02-26T04:59:03;97146.06;;;8.64;91.03
73910;BME280;62245;48.070;7.874;2024-02-26T05:01:29;97151.91;;;8.66;91.29
73910;BME280;62245;48.070;7.874;2024-02-26T05:03:54;97152.50;;;8.68;91.51
73910;BME280;62245;48.070;7.874;2024-02-26T05:06:19;97156.19;;;8.67;90.82
73910;BME280;62245;48.070;7.874;2024-02-26T05:08:45;97144.44;;;8.63;91.01
73910;BME280;62245;48.070;7.874;2024-02-26T05:11:11;97154.50;;;8.61;91.33
73910;BME280;62245;48.070;7.874;2024-02-26T05:13:36;97150.56;;;8.63;90.95
73910;BME280;62245;48.070;7.874;2024-02-26T05:16:01;97150.56;;;8.63;91.38
73910;BME280;62245;48.070;7.874;2024-02-26T05:18:27;97138.91;;;8.64;90.86
73910;BME280;62245;48.070;7.874;2024-02-26T05:20:52;97145.78;;;8.65;90.34
73910;BME280;62245;48.070;7.874;2024-02-26T05:23:18;97146.22;;;8.57;90.91
73910;BME280;62245;48.070;7.874;2024-02-26T05:25:43;97143.31;;;8.59;90.75
73910;BME280;62245;48.070;7.874;2024-02-26T05:28:10;97134.53;;;8.58;90.01
73910;BME280;62245;48.070;7.874;2024-02-26T05:30:36;97130.53;;;8.56;90.01
73910;BME280;62245;48.070;7.874;2024-02-26T05:33:01;97122.47;;;8.51;90.33
73910;BME280;62245;48.070;7.874;2024-02-26T05:35:26;97133.72;;;8.41;88.94
73910;BME280;62245;48.070;7.874;2024-02-26T05:37:51;97127.94;;;8.44;88.63
73910;BME280;62245;48.070;7.874;2024-02-26T05:40:17;97111.75;;;8.46;86.78
73910;BME280;62245;48.070;7.874;2024-02-26T05:42:42;97116.84;;;8.47;87.69
73910;BME280;62245;48.070;7.874;2024-02-26T05:45:10;97123.50;;;8.50;85.19
73910;BME280;62245;48.070;7.874;2024-02-26T05:47:35;97133.19;;;8.56;84.80
73910;BME280;62245;48.070;7.874;2024-02-26T05:50:01;97122.56;;;8.56;84.71
73910;BME280;62245;48.070;7.874;2024-02-26T05:52:27;97128.16;;;8.59;84.53
73910;BME280;62245;48.070;7.874;2024-02-26T05:54:53;97128.41;;;8.58;85.09
73910;BME280;62245;48.070;7.874;2024-02-26T05:57:18;97125.44;;;8.54;83.25
73910;BME280;62245;48.070;7.874;2024-02-26T05:59:44;97122.28;;;8.57;82.94
73910;BME280;62245;48.070;7.874;2024-02-26T06:02:09;97089.78;;;8.33;83.12
73910;BME280;62245;48.070;7.874;2024-02-26T06:04:34;97131.69;;;8.65;81.72
73910;BME280;62245;48.070;7.874;2024-02-26T06:07:00;97139.44;;;8.66;82.40
73910;BME280;62245;48.070;7.874;2024-02-26T06:09:25;97134.75;;;8.74;80.87
73910;BME280;62245;48.070;7.874;2024-02-26T06:11:50;97133.16;;;8.73;81.20
73910;BME280;62245;48.070;7.874;2024-02-26T06:14:15;97126.72;;;8.68;81.23
73910;BME280;62245;48.070;7.874;2024-02-26T06:16:43;97120.13;;;8.71;80.63
73910;BME280;62245;48.070;7.874;2024-02-26T06:19:08;97138.88;;;8.81;80.36
73910;BME280;62245;48.070;7.874;2024-02-26T06:21:34;97147.09;;;8.80;80.40
73910;BME280;62245;48.070;7.874;2024-02-26T06:24:00;97145.78;;;8.82;80.68
73910;BME280;62245;48.070;7.874;2024-02-26T06:26:25;97153.28;;;8.85;79.89
73910;BME280;62245;48.070;7.874;2024-02-26T06:28:53;97154.66;;;8.88;80.11
73910;BME280;62245;48.070;7.874;2024-02-26T06:31:19;97153.59;;;8.89;79.69
73910;BME280;62245;48.070;7.874;2024-02-26T06:33:46;97158.19;;;8.93;79.70
73910;BME280;62245;48.070;7.874;2024-02-26T06:36:11;97150.72;;;8.90;80.00
73910;BME280;62245;48.070;7.874;2024-02-26T06:38:37;97153.44;;;8.95;80.21
73910;BME280;62245;48.070;7.874;2024-02-26T06:41:02;97158.75;;;8.95;79.69
73910;BME280;62245;48.070;7.874;2024-02-26T06:43:28;97163.59;;;8.98;79.90
73910;BME280;62245;48.070;7.874;2024-02-26T06:45:53;97160.38;;;8.96;79.58
73910;BME280;62245;48.070;7.874;2024-02-26T06:48:19;97166.78;;;9.00;80.15
73910;BME280;62245;48.070;7.874;2024-02-26T06:50:44;97163.09;;;9.01;79.47
73910;BME280;62245;48.070;7.874;2024-02-26T06:53:09;97168.25;;;9.08;80.06
73910;BME280;62245;48.070;7.874;2024-02-26T06:55:34;97154.63;;;9.04;80.24
73910;BME280;62245;48.070;7.874;2024-02-26T06:58:00;97158.38;;;9.08;80.27
73910;BME280;62245;48.070;7.874;2024-02-26T07:00:25;97146.97;;;9.08;80.54
73910;BME280;62245;48.070;7.874;2024-02-26T07:02:50;97152.59;;;9.12;81.07
73910;BME280;62245;48.070;7.874;2024-02-26T07:05:16;97163.00;;;9.13;81.75
73910;BME280;62245;48.070;7.874;2024-02-26T07:07:41;97150.50;;;9.14;81.53
73910;BME280;62245;48.070;7.874;2024-02-26T07:10:06;97157.66;;;9.13;81.38
73910;BME280;62245;48.070;7.874;2024-02-26T07:12:32;97155.47;;;9.10;82.49
73910;BME280;62245;48.070;7.874;2024-02-26T07:14:58;97154.53;;;9.16;82.38
73910;BME280;62245;48.070;7.874;2024-02-26T07:17:23;97159.03;;;9.16;83.32
73910;BME280;62245;48.070;7.874;2024-02-26T07:19:49;97172.88;;;9.18;82.47
73910;BME280;62245;48.070;7.874;2024-02-26T07:22:14;97162.81;;;9.20;83.25
73910;BME280;62245;48.070;7.874;2024-02-26T07:24:40;97175.13;;;9.26;83.41
73910;BME280;62245;48.070;7.874;2024-02-26T07:27:05;97171.69;;;9.25;83.24
73910;BME280;62245;48.070;7.874;2024-02-26T07:29:30;97176.72;;;9.27;83.47
73910;BME280;62245;48.070;7.874;2024-02-26T07:31:56;97181.00;;;9.28;83.07
73910;BME280;62245;48.070;7.874;2024-02-26T07:34:21;97183.03;;;9.21;81.79
73910;BME280;62245;48.070;7.874;2024-02-26T07:36:52;97178.34;;;9.28;81.71
73910;BME280;62245;48.070;7.874;2024-02-26T07:39:18;97185.28;;;9.29;82.59
73910;BME280;62245;48.070;7.874;2024-02-26T07:41:43;97186.88;;;9.30;82.19
73910;BME280;62245;48.070;7.874;2024-02-26T07:44:11;97186.88;;;9.30;81.86
73910;BME280;62245;48.070;7.874;2024-02-26T07:46:36;97160.13;;;9.20;81.87
73910;BME280;62245;48.070;7.874;2024-02-26T07:49:02;97179.34;;;9.43;82.29
73910;BME280;62245;48.070;7.874;2024-02-26T07:51:27;97175.47;;;9.51;83.00
73910;BME280;62245;48.070;7.874;2024-02-26T07:53:53;97174.47;;;9.57;82.25
73910;BME280;62245;48.070;7.874;2024-02-26T07:56:18;97172.41;;;9.64;81.54
73910;BME280;62245;48.070;7.874;2024-02-26T07:58:43;97169.31;;;9.72;81.04
73910;BME280;62245;48.070;7.874;2024-02-26T08:01:09;97187.06;;;9.89;80.73
73910;BME280;62245;48.070;7.874;2024-02-26T08:03:34;97184.47;;;9.94;81.05
73910;BME280;62245;48.070;7.874;2024-02-26T08:05:59;97195.41;;;9.97;81.08
73910;BME280;62245;48.070;7.874;2024-02-26T08:08:24;97182.41;;;10.01;81.90
73910;BME280;62245;48.070;7.874;2024-02-26T08:10:50;97181.91;;;10.04;81.53
73910;BME280;62245;48.070;7.874;2024-02-26T08:13:15;97171.75;;;10.01;81.93
73910;BME280;62245;48.070;7.874;2024-02-26T08:15:40;97176.56;;;10.04;81.91
73910;BME280;62245;48.070;7.874;2024-02-26T08:18:06;97172.66;;;10.11;82.19
73910;BME280;62245;48.070;7.874;2024-02-26T08:20:32;97172.03;;;10.26;82.43
73910;BME280;62245;48.070;7.874;2024-02-26T08:22:58;97174.91;;;10.46;81.89
73910;BME280;62245;48.070;7.874;2024-02-26T08:25:24;97169.09;;;10.54;80.60
73910;BME280;62245;48.070;7.874;2024-02-26T08:27:49;97172.84;;;10.58;80.52
73910;BME280;62245;48.070;7.874;2024-02-26T08:30:15;97180.34;;;10.62;80.46
73910;BME280;62245;48.070;7.874;2024-02-26T08:32:45;97185.16;;;10.65;79.40
73910;BME280;62245;48.070;7.874;2024-02-26T08:35:11;97175.47;;;10.53;80.41
73910;BME280;62245;48.070;7.874;2024-02-26T08:37:36;97175.97;;;10.50;79.81
73910;BME280;62245;48.070;7.874;2024-02-26T08:40:02;97200.53;;;10.52;80.28
73910;BME280;62245;48.070;7.874;2024-02-26T08:42:29;97209.91;;;10.55;79.75
73910;BME280;62245;48.070;7.874;2024-02-26T08:44:54;97212.34;;;10.62;79.79
73910;BME280;62245;48.070;7.874;2024-02-26T08:47:20;97211.34;;;10.73;79.74
73910;BME280;62245;48.070;7.874;2024-02-26T08:49:45;97207.63;;;10.74;80.50
73910;BME280;62245;48.070;7.874;2024-02-26T08:52:11;97219.50;;;10.88;80.46
73910;BME280;62245;48.070;7.874;2024-02-26T08:54:36;97220.34;;;10.98;80.24
73910;BME280;62245;48.070;7.874;2024-02-26T08:57:02;97221.78;;;11.06;80.45
73910;BME280;62245;48.070;7.874;2024-02-26T08:59:28;97210.63;;;11.19;80.97
73910;BME280;62245;48.070;7.874;2024-02-26T09:01:53;97208.66;;;11.47;79.96
73910;BME280;62245;48.070;7.874;2024-02-26T09:04:18;97213.00;;;11.63;79.73
73910;BME280;62245;48.070;7.874;2024-02-26T09:06:44;97223.25;;;11.76;79.77
73910;BME280;62245;48.070;7.874;2024-02-26T09:09:09;97205.69;;;11.38;81.63
73910;BME280;62245;48.070;7.874;2024-02-26T09:11:34;97192.59;;;11.37;82.10
73910;BME280;62245;48.070;7.874;2024-02-26T09:14:00;97210.19;;;11.32;82.88
73910;BME280;62245;48.070;7.874;2024-02-26T09:16:25;97232.97;;;11.50;83.02
73910;BME280;62245;48.070;7.874;2024-02-26T09:18:51;97210.16;;;11.27;83.37
73910;BME280;62245;48.070;7.874;2024-02-26T09:21:16;97237.97;;;11.37;83.60
73910;BME280;62245;48.070;7.874;2024-02-26T09:23:48;97211.69;;;11.18;83.10
73910;BME280;62245;48.070;7.874;2024-02-26T09:26:13;97227.69;;;11.13;83.57
73910;BME280;62245;48.070;7.874;2024-02-26T09:28:39;97251.00;;;11.33;82.61
73910;BME280;62245;48.070;7.874;2024-02-26T09:31:04;97238.91;;;11.15;82.33
73910;BME280;62245;48.070;7.874;2024-02-26T09:33:31;97237.03;;;11.16;81.71
73910;BME280;62245;48.070;7.874;2024-02-26T09:35:56;97233.81;;;11.14;80.80
73910;BME280;62245;48.070;7.874;2024-02-26T09:38:21;97248.50;;;11.16;80.54
73910;BME280;62245;48.070;7.874;2024-02-26T09:40:47;97258.09;;;11.12;80.58
73910;BME280;62245;48.070;7.874;2024-02-26T09:43:14;97252.19;;;11.05;81.24
73910;BME280;62245;48.070;7.874;2024-02-26T09:45:41;97247.03;;;10.98;82.04
73910;BME280;62245;48.070;7.874;2024-02-26T09:48:08;97265.47;;;11.00;82.28
73910;BME280;62245;48.070;7.874;2024-02-26T09:50:35;97259.53;;;10.93;82.14
73910;BME280;62245;48.070;7.874;2024-02-26T09:53:02;97261.16;;;10.94;82.35
73910;BME280;62245;48.070;7.874;2024-02-26T09:55:30;97241.84;;;10.82;82.40
73910;BME280;62245;48.070;7.874;2024-02-26T09:57:55;97267.78;;;10.91;83.12
73910;BME280;62245;48.070;7.874;2024-02-26T10:00:22;97263.97;;;10.82;84.23
73910;BME280;62245;48.070;7.874;2024-02-26T10:02:50;97265.69;;;10.93;84.66
73910;BME280;62245;48.070;7.874;2024-02-26T10:05:17;97271.50;;;10.85;85.20
73910;BME280;62245;48.070;7.874;2024-02-26T10:07:44;97273.09;;;10.86;85.76
73910;BME280;62245;48.070;7.874;2024-02-26T10:10:09;97263.94;;;10.77;85.98
73910;BME280;62245;48.070;7.874;2024-02-26T10:12:35;97277.66;;;10.91;86.37
73910;BME280;62245;48.070;7.874;2024-02-26T10:15:00;97266.13;;;10.80;87.12
73910;BME280;62245;48.070;7.874;2024-02-26T10:17:26;97269.06;;;10.84;88.12
73910;BME280;62245;48.070;7.874;2024-02-26T10:19:51;97282.41;;;10.84;88.21
73910;BME280;62245;48.070;7.874;2024-02-26T10:22:22;97283.28;;;10.89;87.33
73910;BME280;62245;48.070;7.874;2024-02-26T10:24:47;97283.34;;;11.00;85.82
73910;BME280;62245;48.070;7.874;2024-02-26T10:27:12;97290.94;;;11.13;85.70
73910;BME280;62245;48.070;7.874;2024-02-26T10:29:38;97288.22;;;11.08;86.82
73910;BME280;62245;48.070;7.874;2024-02-26T10:32:03;97302.28;;;10.98;86.48
73910;BME280;62245;48.070;7.874;2024-02-26T10:34:29;97298.03;;;11.02;86.72
73910;BME280;62245;48.070;7.874;2024-02-26T10:36:54;97292.97;;;11.32;85.34
73910;BME280;62245;48.070;7.874;2024-02-26T10:39:20;97303.44;;;11.81;84.07
73910;BME280;62245;48.070;7.874;2024-02-26T10:41:45;97294.72;;;12.11;82.38
73910;BME280;62245;48.070;7.874;2024-02-26T10:44:11;97285.44;;;12.29;81.55
73910;BME280;62245;48.070;7.874;2024-02-26T10:46:41;97290.06;;;12.43;81.28
73910;BME280;62245;48.070;7.874;2024-02-26T10:49:13;97277.75;;;12.47;81.33
73910;BME280;62245;48.070;7.874;2024-02-26T10:51:39;97299.63;;;12.29;81.89
73910;BME280;62245;48.070;7.874;2024-02-26T10:54:07;97300.38;;;12.20;82.17
73910;BME280;62245;48.070;7.874;2024-02-26T10:56:36;97304.41;;;12.22;81.96
73910;BME280;62245;48.070;7.874;2024-02-26T10:59:07;97298.75;;;12.14;81.87
73910;BME280;62245;48.070;7.874;2024-02-26T11:01:33;97300.06;;;12.11;82.53
73910;BME280;62245;48.070;7.874;2024-02-26T11:04:02;97303.59;;;12.17;82.48
73910;BME280;62245;48.070;7.874;2024-02-26T11:06:28;97303.59;;;12.22;82.39
73910;BME280;62245;48.070;7.874;2024-02-26T11:08:54;97300.97;;;12.37;82.39
73910;BME280;62245;48.070;7.874;2024-02-26T11:11:22;97298.34;;;12.42;82.20
73910;BME280;62245;48.070;7.874;2024-02-26T11:13:50;97292.50;;;12.60;81.56
73910;BME280;62245;48.070;7.874;2024-02-26T11:16:18;97302.41;;;12.80;81.46
73910;BME280;62245;48.070;7.874;2024-02-26T11:18:43;97293.88;;;13.08;80.54
73910;BME280;62245;48.070;7.874;2024-02-26T11:21:15;97299.53;;;13.57;78.67
73910;BME280;62245;48.070;7.874;2024-02-26T11:23:40;97292.75;;;13.80;77.68
73910;BME280;62245;48.070;7.874;2024-02-26T11:26:07;97292.56;;;14.41;75.84
73910;BME280;62245;48.070;7.874;2024-02-26T11:28:34;97295.22;;;14.90;73.54
73910;BME280;62245;48.070;7.874;2024-02-26T11:31:00;97284.47;;;14.90;72.14
73910;BME280;62245;48.070;7.874;2024-02-26T11:33:26;97284.50;;;14.41;72.82
73910;BME280;62245;48.070;7.874;2024-02-26T11:35:53;97283.63;;;14.56;71.79
73910;BME280;62245;48.070;7.874;2024-02-26T11:38:24;97281.63;;;14.71;71.37
73910;BME280;62245;48.070;7.874;2024-02-26T11:40:51;97273.88;;;14.70;71.43
73910;BME280;62245;48.070;7.874;2024-02-26T11:43:23;97274.00;;;14.50;71.43
73910;BME280;62245;48.070;7.874;2024-02-26T11:45:49;97282.31;;;14.48;72.07
73910;BME280;62245;48.070;7.874;2024-02-26T11:48:20;97271.38;;;14.40;72.13
73910;BME280;62245;48.070;7.874;2024-02-26T11:50:48;97276.69;;;14.50;72.63
73910;BME280;62245;48.070;7.874;2024-02-26T11:53:30;97273.22;;;14.44;72.95
73910;BME280;62245;48.070;7.874;2024-02-26T11:59:04;97280.22;;;14.35;73.50
73910;BME280;62245;48.070;7.874;2024-02-26T12:01:50;97274.03;;;14.40;72.92
73910;BME280;62245;48.070;7.874;2024-02-26T12:04:26;97277.72;;;14.54;73.40
73910;BME280;62245;48.070;7.874;2024-02-26T12:06:57;97283.06;;;14.59;72.69
73910;BME280;62245;48.070;7.874;2024-02-26T12:09:41;97268.84;;;14.58;72.41
73910;BME280;62245;48.070;7.874;2024-02-26T12:12:08;97278.72;;;14.68;71.62
73910;BME280;62245;48.070;7.874;2024-02-26T12:14:37;97277.06;;;14.72;71.00
73910;BME280;62245;48.070;7.874;2024-02-26T12:17:04;97277.81;;;14.83;71.30
73910;BME280;62245;48.070;7.874;2024-02-26T12:19:32;97281.81;;;14.85;71.08
73910;BME280;62245;48.070;7.874;2024-02-26T12:21:58;97274.56;;;14.86;70.17
73910;BME280;62245;48.070;7.874;2024-02-26T12:24:23;97279.66;;;14.87;70.15
73910;BME280;62245;48.070;7.874;2024-02-26T12:26:49;97281.25;;;14.88;69.50
73910;BME280;62245;48.070;7.874;2024-02-26T12:29:14;97279.16;;;14.85;70.17
73910;BME280;62245;48.070;7.874;2024-02-26T12:31:40;97278.88;;;14.82;70.40
73910;BME280;62245;48.070;7.874;2024-02-26T12:34:06;97276.78;;;14.79;70.00
73910;BME280;62245;48.070;7.874;2024-02-26T12:36:33;97270.56;;;14.83;70.44
73910;BME280;62245;48.070;7.874;2024-02-26T12:39:00;97276.00;;;14.73;70.15
73910;BME280;62245;48.070;7.874;2024-02-26T12:41:26;97288.38;;;14.69;70.42
73910;BME280;62245;48.070;7.874;2024-02-26T12:43:53;97284.38;;;14.66;70.25
73910;BME280;62245;48.070;7.874;2024-02-26T12:46:18;97289.25;;;14.59;70.47
73910;BME280;62245;48.070;7.874;2024-02-26T12:48:44;97286.84;;;14.58;70.34
73910;BME280;62245;48.070;7.874;2024-02-26T12:51:12;97288.97;;;14.56;70.20
73910;BME280;62245;48.070;7.874;2024-02-26T12:53:37;97295.91;;;14.67;70.09
73910;BME280;62245;48.070;7.874;2024-02-26T12:56:03;97285.94;;;14.72;69.90
73910;BME280;62245;48.070;7.874;2024-02-26T12:58:30;97288.81;;;14.81;69.48
73910;BME280;62245;48.070;7.874;2024-02-26T13:00:57;97292.28;;;14.87;69.54
73910;BME280;62245;48.070;7.874;2024-02-26T13:03:23;97282.56;;;14.96;68.62
73910;BME280;62245;48.070;7.874;2024-02-26T13:05:49;97283.03;;;15.03;68.61
73910;BME280;62245;48.070;7.874;2024-02-26T13:08:19;97286.63;;;15.22;68.72
73910;BME280;62245;48.070;7.874;2024-02-26T13:10:45;97287.19;;;15.48;68.56
73910;BME280;62245;48.070;7.874;2024-02-26T13:13:11;97285.44;;;15.67;66.74
73910;BME280;62245;48.070;7.874;2024-02-26T13:15:36;97285.31;;;15.82;66.90
73910;BME280;62245;48.070;7.874;2024-02-26T13:18:09;97285.47;;;15.91;66.13
73910;BME280;62245;48.070;7.874;2024-02-26T13:20:35;97285.06;;;16.03;66.42
73910;BME280;62245;48.070;7.874;2024-02-26T13:23:05;97295.34;;;16.19;66.25
73910;BME280;62245;48.070;7.874;2024-02-26T13:25:31;97290.94;;;16.29;64.26
73910;BME280;62245;48.070;7.874;2024-02-26T13:28:12;97299.94;;;16.19;64.49
73910;BME280;62245;48.070;7.874;2024-02-26T13:30:38;97297.50;;;16.17;64.39
73910;BME280;62245;48.070;7.874;2024-02-26T13:33:11;97291.81;;;16.24;65.61
73910;BME280;62245;48.070;7.874;2024-02-26T13:35:37;97289.44;;;16.17;65.10
73910;BME280;62245;48.070;7.874;2024-02-26T13:38:04;97285.84;;;16.03;65.88
73910;BME280;62245;48.070;7.874;2024-02-26T13:40:30;97299.75;;;15.87;66.00
73910;BME280;62245;48.070;7.874;2024-02-26T13:42:55;97295.09;;;15.68;66.27
73910;BME280;62245;48.070;7.874;2024-02-26T13:45:20;97291.81;;;15.47;66.98
73910;BME280;62245;48.070;7.874;2024-02-26T13:47:45;97298.56;;;15.40;67.57
73910;BME280;62245;48.070;7.874;2024-02-26T13:50:11;97297.28;;;15.32;68.02
73910;BME280;62245;48.070;7.874;2024-02-26T13:52:36;97305.16;;;15.24;68.19
73910;BME280;62245;48.070;7.874;2024-02-26T13:55:01;97302.78;;;15.17;68.17
73910;BME280;62245;48.070;7.874;2024-02-26T13:57:28;97293.72;;;15.08;68.74
73910;BME280;62245;48.070;7.874;2024-02-26T13:59:54;97287.03;;;15.05;68.77
73910;BME280;62245;48.070;7.874;2024-02-26T14:02:19;97293.19;;;15.11;69.01
73910;BME280;62245;48.070;7.874;2024-02-26T14:04:46;97292.94;;;15.07;69.21
73910;BME280;62245;48.070;7.874;2024-02-26T14:07:12;97298.84;;;15.09;68.25
73910;BME280;62245;48.070;7.874;2024-02-26T14:09:37;97299.63;;;15.10;69.17
73910;BME280;62245;48.070;7.874;2024-02-26T14:12:03;97296.34;;;15.18;69.20
73910;BME280;62245;48.070;7.874;2024-02-26T14:14:29;97294.84;;;15.36;69.49
73910;BME280;62245;48.070;7.874;2024-02-26T14:16:57;97286.06;;;15.59;69.27
73910;BME280;62245;48.070;7.874;2024-02-26T14:19:22;97280.75;;;15.78;68.30
73910;BME280;62245;48.070;7.874;2024-02-26T14:21:48;97282.44;;;15.98;67.73
73910;BME280;62245;48.070;7.874;2024-02-26T14:24:13;97286.03;;;16.12;67.19
73910;BME280;62245;48.070;7.874;2024-02-26T14:26:40;97289.41;;;16.22;66.51
73910;BME280;62245;48.070;7.874;2024-02-26T14:29:08;97283.22;;;16.22;66.43
73910;BME280;62245;48.070;7.874;2024-02-26T14:31:33;97284.75;;;16.28;66.18
73910;BME280;62245;48.070;7.874;2024-02-26T14:33:58;97273.25;;;16.22;66.07
73910;BME280;62245;48.070;7.874;2024-02-26T14:36:24;97275.66;;;16.24;66.38
73910;BME280;62245;48.070;7.874;2024-02-26T14:38:50;97278.84;;;16.26;66.42
73910;BME280;62245;48.070;7.874;2024-02-26T14:41:15;97272.69;;;16.26;66.25
73910;BME280;62245;48.070;7.874;2024-02-26T14:43:40;97272.09;;;16.29;66.25
73910;BME280;62245;48.070;7.874;2024-02-26T14:46:06;97283.09;;;16.32;65.88
73910;BME280;62245;48.070;7.874;2024-02-26T14:48:31;97283.09;;;16.32;66.04
73910;BME280;62245;48.070;7.874;2024-02-26T14:50:57;97285.19;;;16.35;66.05
73910;BME280;62245;48.070;7.874;2024-02-26T14:53:22;97286.03;;;16.12;66.00
73910;BME280;62245;48.070;7.874;2024-02-26T14:55:48;97290.22;;;15.99;66.46
73910;BME280;62245;48.070;7.874;2024-02-26T14:58:13;97281.34;;;15.46;68.60
73910;BME280;62245;48.070;7.874;2024-02-26T15:00:38;97284.13;;;14.97;70.48
73910;BME280;62245;48.070;7.874;2024-02-26T15:03:04;97284.75;;;14.89;70.12
73910;BME280;62245;48.070;7.874;2024-02-26T15:05:29;97281.50;;;14.92;70.07
73910;BME280;62245;48.070;7.874;2024-02-26T15:07:54;97290.03;;;14.99;70.51
73910;BME280;62245;48.070;7.874;2024-02-26T15:10:20;97299.00;;;14.84;70.75
73910;BME280;62245;48.070;7.874;2024-02-26T15:12:45;97294.03;;;14.62;71.61
73910;BME280;62245;48.070;7.874;2024-02-26T15:15:11;97294.03;;;14.62;71.97
73910;BME280;62245;48.070;7.874;2024-02-26T15:17:36;97299.16;;;14.59;72.39
73910;BME280;62245;48.070;7.874;2024-02-26T15:20:02;97301.06;;;14.58;72.04
73910;BME280;62245;48.070;7.874;2024-02-26T15:22:27;97307.72;;;14.66;72.48
73910;BME280;62245;48.070;7.874;2024-02-26T15:24:53;97307.19;;;14.64;72.30
73910;BME280;62245;48.070;7.874;2024-02-26T15:27:18;97306.09;;;14.65;71.83
73910;BME280;62245;48.070;7.874;2024-02-26T15:29:43;97299.69;;;14.61;71.71
73910;BME280;62245;48.070;7.874;2024-02-26T15:32:10;97302.34;;;14.66;71.52
73910;BME280;62245;48.070;7.874;2024-02-26T15:34:35;97292.69;;;14.65;71.28
73910;BME280;62245;48.070;7.874;2024-02-26T15:37:01;97290.00;;;14.70;71.44
73910;BME280;62245;48.070;7.874;2024-02-26T15:39:27;97288.34;;;14.74;71.50
73910;BME280;62245;48.070;7.874;2024-02-26T15:41:52;97301.81;;;14.64;70.74
73910;BME280;62245;48.070;7.874;2024-02-26T15:44:17;97297.84;;;14.56;71.38
73910;BME280;62245;48.070;7.874;2024-02-26T15:46:43;97309.31;;;14.67;71.88
73910;BME280;62245;48.070;7.874;2024-02-26T15:49:08;97304.44;;;14.74;71.42
73910;BME280;62245;48.070;7.874;2024-02-26T15:51:33;97306.31;;;14.73;70.76
73910;BME280;62245;48.070;7.874;2024-02-26T15:54:00;97314.03;;;14.85;70.05
73910;BME280;62245;48.070;7.874;2024-02-26T15:56:26;97314.75;;;15.01;68.85
73910;BME280;62245;48.070;7.874;2024-02-26T15:58:51;97313.47;;;14.88;65.74
73910;BME280;62245;48.070;7.874;2024-02-26T16:01:16;97326.94;;;14.83;65.84